Time;durP1;ratioP1;P1;durP2;ratioP2;P2;SDS_P1;SDS_P2;PMS_P1;PMS_P2;Temp;Humidity;BMP_temperature;BMP_pressure;BME280_temperature;BME280_humidity;BME280_pressure;Samples;Min_cycle;Max_cycle;Signal;HPM_P1;HPM_P2
2021/06/10 00:02:15;;;;;;;33.85;27.20;;;15.50;99.90;;;;;;5042366;28;20045;-60
2021/06/10 00:04:41;;;;;;;34.00;26.08;;;15.50;99.90;;;;;;5039509;28;20038;-60
2021/06/10 00:07:08;;;;;;;29.67;25.85;;;15.40;99.90;;;;;;5046258;28;20064;-60
2021/06/10 00:09:33;;;;;;;32.65;25.63;;;15.30;99.90;;;;;;5045982;28;20487;-60
2021/06/10 00:11:59;;;;;;;30.80;25.13;;;15.30;99.90;;;;;;5044987;28;20065;-59
2021/06/10 00:14:26;;;;;;;29.45;25.52;;;15.30;99.90;;;;;;5031622;28;20094;-60
2021/06/10 00:16:52;;;;;;;31.63;26.20;;;15.30;99.90;;;;;;5037273;28;20049;-60
2021/06/10 00:19:18;;;;;;;30.98;25.90;;;15.30;99.90;;;;;;5037167;28;20123;-60
2021/06/10 00:21:45;;;;;;;36.78;28.00;;;15.20;99.90;;;;;;5045826;28;20065;-60
2021/06/10 00:24:11;;;;;;;34.75;26.48;;;15.10;99.90;;;;;;5030208;28;20046;-60
2021/06/10 00:26:37;;;;;;;31.10;25.92;;;15.20;99.90;;;;;;5033906;28;20549;-60
2021/06/10 00:29:03;;;;;;;34.38;26.73;;;15.10;99.90;;;;;;5041595;28;20064;-60
2021/06/10 00:31:30;;;;;;;36.05;29.02;;;15.20;99.90;;;;;;5043936;28;20093;-60
2021/06/10 00:33:56;;;;;;;37.83;30.50;;;15.10;99.90;;;;;;5032898;28;20128;-59
2021/06/10 00:36:23;;;;;;;37.10;29.17;;;15.10;99.90;;;;;;5045261;28;20088;-60
2021/06/10 00:38:50;;;;;;;36.50;30.40;;;15.00;99.90;;;;;;5045079;28;20123;-60
2021/06/10 00:41:16;;;;;;;39.67;28.92;;;15.00;99.90;;;;;;5036887;28;20053;-60
2021/06/10 00:43:42;;;;;;;37.40;30.55;;;14.90;99.90;;;;;;5046007;28;20052;-60
2021/06/10 00:46:08;;;;;;;43.22;31.83;;;14.80;99.90;;;;;;5044880;28;20073;-60
2021/06/10 00:48:35;;;;;;;43.72;32.85;;;14.80;99.90;;;;;;5044667;28;20556;-60
2021/06/10 00:51:03;;;;;;;40.35;32.20;;;14.80;99.90;;;;;;5045049;28;20079;-60
2021/06/10 00:53:29;;;;;;;39.58;32.33;;;14.70;99.90;;;;;;5044965;28;20045;-60
2021/06/10 00:56:01;;;;;;;43.67;33.97;;;14.60;99.90;;;;;;5044436;28;20504;-60
2021/06/10 00:58:28;;;;;;;42.15;34.10;;;14.60;99.90;;;;;;5032870;28;20111;-60
2021/06/10 01:00:55;;;;;;;48.80;34.80;;;14.60;99.90;;;;;;5043434;28;20053;-60
2021/06/10 01:03:21;;;;;;;45.07;34.97;;;14.50;99.90;;;;;;5045117;28;20049;-60
2021/06/10 01:05:54;;;;;;;48.63;36.25;;;14.50;99.90;;;;;;5044234;28;20319;-60
2021/06/10 01:08:45;;;;;;;45.35;36.08;;;14.50;99.90;;;;;;5044690;28;20053;-60
2021/06/10 01:11:23;;;;;;;47.72;36.50;;;14.40;99.90;;;;;;5044050;28;20055;-60
2021/06/10 01:14:05;;;;;;;59.08;38.15;;;14.40;99.90;;;;;;5044667;28;20049;-60
2021/06/10 01:16:36;;;;;;;46.88;37.17;;;14.40;99.90;;;;;;5032020;28;20081;-60
2021/06/10 01:19:14;;;;;;;52.13;38.25;;;14.30;99.90;;;;;;5044707;28;20061;-60
2021/06/10 01:21:42;;;;;;;56.85;41.17;;;14.30;99.90;;;;;;5044177;28;20086;-60
2021/06/10 01:24:46;;;;;;;56.70;41.75;;;14.30;99.90;;;;;;5044151;28;20056;-60
2021/06/10 01:27:27;;;;;;;60.50;46.28;;;14.30;99.90;;;;;;4988179;28;20500;-60
2021/06/10 01:30:20;;;;;;;54.85;40.45;;;14.30;99.90;;;;;;5001560;28;20125;-60
2021/06/10 01:33:13;;;;;;;60.97;40.20;;;14.20;99.90;;;;;;5000942;28;20047;-59
2021/06/10 01:35:47;;;;;;;62.38;43.33;;;14.10;99.90;;;;;;5000439;28;20055;-60
2021/06/10 01:38:14;;;;;;;58.42;43.03;;;14.10;99.90;;;;;;5001877;28;20151;-60
2021/06/10 01:40:41;;;;;;;57.72;40.03;;;14.00;99.90;;;;;;5002401;28;20050;-60
2021/06/10 01:43:09;;;;;;;59.00;41.90;;;13.90;99.90;;;;;;4994284;28;20065;-61
2021/06/10 01:45:36;;;;;;;72.55;48.13;;;13.80;99.90;;;;;;4992742;28;20046;-60
2021/06/10 01:48:02;;;;;;;63.42;43.92;;;13.80;99.90;;;;;;5002295;28;20050;-60
2021/06/10 01:50:29;;;;;;;72.20;51.25;;;13.80;99.90;;;;;;4996821;28;20058;-61
2021/06/10 01:52:55;;;;;;;70.65;46.35;;;13.70;99.90;;;;;;4990523;28;20061;-60
2021/06/10 01:55:24;;;;;;;62.10;44.63;;;13.80;99.90;;;;;;4998213;28;20304;-60
2021/06/10 01:57:52;;;;;;;68.47;46.53;;;13.70;99.90;;;;;;4989905;28;20062;-60
2021/06/10 02:00:18;;;;;;;;;;;13.70;99.90;;;;;;4991157;28;20052;-60
2021/06/10 02:02:47;;;;;;;59.28;43.00;;;13.80;99.90;;;;;;4997580;28;20020;-60
2021/06/10 02:05:13;;;;;;;78.50;48.97;;;13.60;99.90;;;;;;5043598;28;20041;-60
2021/06/10 02:07:41;;;;;;;85.43;54.08;;;13.60;99.90;;;;;;5043533;28;20041;-60
2021/06/10 02:10:10;;;;;;;69.50;48.58;;;13.70;99.90;;;;;;5043237;28;20048;-60
2021/06/10 02:12:44;;;;;;;66.75;47.25;;;13.70;99.90;;;;;;5030621;28;20045;-61
2021/06/10 02:15:12;;;;;;;69.40;46.28;;;13.70;99.90;;;;;;5042969;28;20045;-60
2021/06/10 02:17:39;;;;;;;82.05;50.50;;;13.70;99.90;;;;;;5043706;28;20148;-60
2021/06/10 02:20:07;;;;;;;72.75;46.95;;;13.60;99.90;;;;;;5043116;28;20516;-60
2021/06/10 02:22:35;;;;;;;77.18;51.13;;;13.70;99.90;;;;;;5042933;28;20064;-60
2021/06/10 02:25:02;;;;;;;74.78;49.22;;;13.60;99.90;;;;;;5043580;28;20046;-60
2021/06/10 02:27:27;;;;;;;61.78;45.35;;;13.60;99.90;;;;;;5043717;28;20038;-59
2021/06/10 02:29:53;;;;;;;75.03;49.60;;;13.60;99.90;;;;;;5042736;28;20042;-60
2021/06/10 02:32:19;;;;;;;73.43;50.50;;;13.50;99.90;;;;;;5032965;28;20502;-60
2021/06/10 02:34:47;;;;;;;68.47;47.80;;;13.60;99.90;;;;;;5041146;28;20046;-60
2021/06/10 02:37:17;;;;;;;78.57;51.15;;;13.50;99.90;;;;;;5042648;28;20095;-60
2021/06/10 02:39:46;;;;;;;79.18;53.17;;;13.50;99.90;;;;;;5040589;28;20132;-60
2021/06/10 02:42:14;;;;;;;76.25;53.25;;;13.50;99.90;;;;;;5043007;28;20106;-60
2021/06/10 02:44:43;;;;;;;77.18;52.63;;;13.50;99.90;;;;;;5042912;28;20105;-60
2021/06/10 02:47:10;;;;;;;74.05;48.38;;;13.40;99.90;;;;;;5038405;28;20046;-59
2021/06/10 02:49:37;;;;;;;67.68;47.28;;;13.40;99.90;;;;;;5043028;28;20061;-60
2021/06/10 02:52:06;;;;;;;64.65;45.17;;;13.40;99.90;;;;;;5042536;28;20125;-60
2021/06/10 02:54:35;;;;;;;67.95;42.42;;;13.20;99.90;;;;;;5043088;28;20081;-60
2021/06/10 02:57:04;;;;;;;65.45;44.30;;;13.10;99.90;;;;;;5043102;28;20037;-60
2021/06/10 02:59:31;;;;;;;74.03;48.78;;;13.00;99.90;;;;;;5042607;28;20086;-59
2021/06/10 03:01:57;;;;;;;90.53;56.93;;;13.00;99.90;;;;;;5041656;28;20037;-60
2021/06/10 03:04:43;;;;;;;80.88;51.47;;;13.00;99.90;;;;;;5035563;28;20140;-60
2021/06/10 03:07:11;;;;;;;;;;;13.00;99.90;;;;;;5043263;28;20064;-60
2021/06/10 03:09:39;;;;;;;74.43;49.30;;;12.90;99.90;;;;;;5042872;28;20387;-60
2021/06/10 03:12:06;;;;;;;88.60;56.05;;;12.80;99.90;;;;;;5042784;28;20118;-60
2021/06/10 03:14:32;;;;;;;100.20;57.78;;;12.80;99.90;;;;;;5057436;28;20045;-60
2021/06/10 03:16:59;;;;;;;101.25;62.65;;;12.80;99.90;;;;;;5041155;28;20056;-59
2021/06/10 03:19:25;;;;;;;86.40;53.03;;;12.80;99.90;;;;;;5042398;28;20041;-60
2021/06/10 03:21:51;;;;;;;77.88;49.75;;;12.80;99.90;;;;;;5042852;28;20069;-60
2021/06/10 03:24:18;;;;;;;77.15;52.83;;;12.70;99.90;;;;;;5042188;28;20054;-60
2021/06/10 03:26:46;;;;;;;80.60;51.83;;;12.70;99.90;;;;;;5042698;28;20128;-60
2021/06/10 03:29:12;;;;;;;77.22;50.90;;;12.70;99.90;;;;;;5041778;28;20041;-60
2021/06/10 03:31:39;;;;;;;75.93;51.13;;;12.70;99.90;;;;;;5042090;28;20124;-60
2021/06/10 03:34:05;;;;;;;89.82;57.65;;;12.60;99.90;;;;;;5042513;28;20048;-60
2021/06/10 03:36:31;;;;;;;105.85;65.10;;;12.60;99.90;;;;;;5042894;28;20042;-60
2021/06/10 03:38:58;;;;;;;103.82;62.95;;;12.60;99.90;;;;;;5042678;28;20049;-60
2021/06/10 03:41:26;;;;;;;84.60;56.30;;;12.70;99.90;;;;;;5042075;28;20049;-60
2021/06/10 03:43:53;;;;;;;86.38;56.33;;;12.70;99.90;;;;;;5042674;28;20068;-60
2021/06/10 03:46:19;;;;;;;85.07;53.63;;;12.70;99.90;;;;;;5042057;28;20245;-60
2021/06/10 03:48:45;;;;;;;83.07;56.50;;;12.70;99.90;;;;;;5043165;28;20042;-60
2021/06/10 03:51:17;;;;;;;87.32;57.67;;;12.60;99.90;;;;;;5042819;28;20049;-60
2021/06/10 03:53:43;;;;;;;88.28;58.53;;;12.60;99.90;;;;;;5042741;28;20045;-60
2021/06/10 03:56:15;;;;;;;80.22;55.17;;;12.70;99.90;;;;;;5046023;28;20069;-60
2021/06/10 03:58:42;;;;;;;72.72;51.72;;;12.70;99.90;;;;;;5045561;28;20041;-60
2021/06/10 04:01:08;;;;;;;75.20;52.85;;;12.80;99.90;;;;;;5045721;28;20057;-60
2021/06/10 04:03:34;;;;;;;88.43;57.72;;;12.80;99.90;;;;;;5046329;28;20074;-60
2021/06/10 04:06:01;;;;;;;78.95;52.90;;;13.10;99.90;;;;;;5045805;28;20041;-60
2021/06/10 04:08:40;;;;;;;72.72;52.35;;;13.20;99.90;;;;;;5045300;28;20049;-60
2021/06/10 04:11:14;;;;;;;73.45;52.20;;;13.30;99.90;;;;;;5035056;28;20131;-60
2021/06/10 04:13:40;;;;;;;67.38;48.90;;;13.30;99.90;;;;;;5045107;28;20493;-60
2021/06/10 04:16:24;;;;;;;72.55;50.42;;;13.40;99.90;;;;;;5045287;28;20053;-60
2021/06/10 04:18:51;;;;;;;67.82;49.03;;;13.60;99.90;;;;;;5045322;28;20111;-60
2021/06/10 04:21:18;;;;;;;65.88;46.53;;;13.60;99.90;;;;;;5045637;28;20271;-60
2021/06/10 04:23:47;;;;;;;56.38;43.25;;;13.70;99.90;;;;;;5045574;28;20046;-60
2021/06/10 04:26:13;;;;;;;64.50;44.05;;;13.70;99.90;;;;;;5045370;28;20042;-60
2021/06/10 04:28:44;;;;;;;57.13;42.38;;;13.70;99.90;;;;;;5045446;28;20053;-60
2021/06/10 04:31:20;;;;;;;61.75;43.92;;;13.70;99.90;;;;;;5044472;28;20042;-60
2021/06/10 04:33:47;;;;;;;62.20;43.25;;;13.90;99.90;;;;;;5040020;28;20049;-60
2021/06/10 04:36:14;;;;;;;61.67;44.42;;;14.00;99.90;;;;;;5045533;28;20053;-60
2021/06/10 04:38:42;;;;;;;62.00;43.90;;;14.10;99.90;;;;;;5045026;28;20053;-60
2021/06/10 04:41:10;;;;;;;67.70;45.88;;;14.10;99.90;;;;;;5045899;28;20141;-60
2021/06/10 04:43:56;;;;;;;59.72;43.95;;;14.10;99.90;;;;;;5051259;28;20045;-60
2021/06/10 04:46:23;;;;;;;63.03;45.42;;;14.30;99.90;;;;;;5044747;28;20060;-60
2021/06/10 04:48:50;;;;;;;62.45;42.85;;;14.30;99.90;;;;;;5044913;28;20045;-60
2021/06/10 04:51:16;;;;;;;59.38;42.42;;;14.40;99.90;;;;;;5045252;28;20045;-60
2021/06/10 04:53:45;;;;;;;58.53;40.70;;;14.50;99.90;;;;;;5045022;28;20056;-62
2021/06/10 04:56:12;;;;;;;57.95;40.25;;;14.60;99.90;;;;;;5044958;28;20137;-61
2021/06/10 04:58:39;;;;;;;55.03;40.08;;;14.70;99.90;;;;;;5045280;28;20493;-61
2021/06/10 05:01:05;;;;;;;54.42;40.28;;;14.80;99.90;;;;;;5044187;28;20128;-61
2021/06/10 05:03:33;;;;;;;60.30;40.55;;;14.90;99.90;;;;;;5044028;28;20041;-61
2021/06/10 05:06:01;;;;;;;49.85;37.95;;;14.90;99.90;;;;;;5044531;28;20126;-60
2021/06/10 05:08:31;;;;;;;50.05;38.45;;;15.00;99.90;;;;;;5044633;28;20041;-61
2021/06/10 05:10:59;;;;;;;53.20;37.67;;;15.20;99.90;;;;;;5044789;28;20049;-60
2021/06/10 05:13:26;;;;;;;51.15;36.30;;;15.30;99.90;;;;;;5044314;28;20049;-61
2021/06/10 05:15:54;;;;;;;47.35;34.20;;;15.40;99.90;;;;;;5043908;28;20064;-61
2021/06/10 05:18:20;;;;;;;43.20;33.33;;;15.50;99.90;;;;;;5044670;28;20037;-61
2021/06/10 05:20:48;;;;;;;37.92;28.33;;;15.60;99.90;;;;;;5044069;28;20053;-61
2021/06/10 05:23:15;;;;;;;40.00;27.38;;;15.80;99.90;;;;;;5044494;28;20130;-60
2021/06/10 05:25:40;;;;;;;37.65;27.00;;;15.90;99.90;;;;;;5043845;28;20068;-59
2021/06/10 05:28:06;;;;;;;42.45;28.05;;;16.10;99.90;;;;;;5043319;28;20076;-60
2021/06/10 05:30:33;;;;;;;34.83;25.75;;;16.20;99.90;;;;;;5042932;28;20076;-61
2021/06/10 05:32:59;;;;;;;29.85;23.08;;;16.40;99.90;;;;;;5030309;28;20057;-62
2021/06/10 05:35:25;;;;;;;30.88;21.92;;;16.60;99.90;;;;;;5045026;28;20129;-60
2021/06/10 05:37:51;;;;;;;30.88;20.13;;;16.70;99.90;;;;;;5043653;28;20041;-60
2021/06/10 05:40:37;;;;;;;26.73;18.85;;;16.80;99.90;;;;;;5042594;28;20075;-60
2021/06/10 05:43:03;;;;;;;27.00;19.08;;;17.00;99.90;;;;;;5037233;28;20045;-60
2021/06/10 05:45:29;;;;;;;21.92;16.75;;;17.00;99.90;;;;;;5042831;28;20048;-60
2021/06/10 05:47:56;;;;;;;25.10;17.02;;;17.20;99.90;;;;;;5043984;28;20049;-61
2021/06/10 05:50:22;;;;;;;22.80;17.50;;;17.30;99.90;;;;;;5043435;28;20047;-60
2021/06/10 05:52:48;;;;;;;26.85;19.58;;;17.40;99.90;;;;;;5044080;28;20514;-61
2021/06/10 05:55:17;;;;;;;24.17;18.45;;;17.50;99.90;;;;;;5043594;28;20056;-61
2021/06/10 05:57:43;;;;;;;21.90;17.35;;;17.70;99.90;;;;;;5043081;28;20053;-61
2021/06/10 06:00:09;;;;;;;22.80;17.20;;;17.80;99.90;;;;;;5040621;28;20045;-61
2021/06/10 06:02:35;;;;;;;22.63;17.45;;;18.00;99.90;;;;;;5043972;28;20033;-61
2021/06/10 06:05:11;;;;;;;24.85;16.80;;;18.10;99.90;;;;;;5057506;28;20045;-61
2021/06/10 06:07:37;;;;;;;21.13;16.98;;;18.20;99.90;;;;;;5043599;28;20137;-61
2021/06/10 06:10:04;;;;;;;22.17;17.88;;;18.40;99.90;;;;;;5043407;28;20069;-62
2021/06/10 06:12:44;;;;;;;25.73;16.83;;;18.50;99.90;;;;;;5037980;28;20077;-61
2021/06/10 06:15:11;;;;;;;21.60;14.77;;;18.50;99.90;;;;;;5043161;28;20050;-61
2021/06/10 06:17:37;;;;;;;14.70;9.63;;;18.70;99.90;;;;;;5042759;28;20049;-59
2021/06/10 06:20:03;;;;;;;22.42;14.73;;;19.00;99.90;;;;;;5043801;28;20420;-58
2021/06/10 06:22:30;;;;;;;20.73;15.15;;;19.40;99.90;;;;;;5042828;28;20095;-59
2021/06/10 06:24:56;;;;;;;18.70;14.98;;;19.30;99.90;;;;;;5043357;28;20061;-59
2021/06/10 06:27:22;;;;;;;15.27;11.15;;;19.50;99.90;;;;;;5043320;28;20048;-59
2021/06/10 06:29:50;;;;;;;18.52;13.93;;;19.70;99.90;;;;;;5042814;28;20054;-59
2021/06/10 06:32:16;;;;;;;15.73;13.75;;;19.60;99.90;;;;;;5040976;28;20052;-59
2021/06/10 06:34:42;;;;;;;20.35;15.35;;;20.00;99.90;;;;;;5042730;28;20546;-59
2021/06/10 06:37:11;;;;;;;12.93;11.32;;;20.20;99.90;;;;;;5042800;28;20049;-59
2021/06/10 06:39:47;;;;;;;14.57;10.77;;;20.40;99.90;;;;;;5042724;28;20049;-60
2021/06/10 06:42:13;;;;;;;17.15;14.55;;;20.70;99.90;;;;;;5043226;28;20041;-59
2021/06/10 06:44:39;;;;;;;16.73;12.63;;;20.70;99.90;;;;;;5042472;28;20044;-59
2021/06/10 06:47:05;;;;;;;19.55;14.88;;;20.60;99.90;;;;;;5043252;28;20034;-58
2021/06/10 06:49:40;;;;;;;20.48;15.93;;;20.50;99.90;;;;;;5043120;28;20045;-58
2021/06/10 06:52:06;;;;;;;20.77;14.43;;;20.60;99.90;;;;;;5042337;28;20056;-58
2021/06/10 06:54:32;;;;;;;16.48;12.35;;;20.70;99.90;;;;;;5043034;28;20497;-58
2021/06/10 06:56:58;;;;;;;20.70;15.98;;;20.70;99.90;;;;;;5041784;28;20091;-58
2021/06/10 06:59:24;;;;;;;18.52;15.15;;;20.70;99.90;;;;;;5041818;28;20592;-58
2021/06/10 07:01:51;;;;;;;19.50;14.07;;;20.40;99.90;;;;;;5041844;28;20311;-58
2021/06/10 07:04:17;;;;;;;21.00;16.48;;;20.30;99.90;;;;;;5034092;28;20556;-59
2021/06/10 07:06:48;;;;;;;21.90;16.75;;;20.20;99.90;;;;;;5042736;28;20109;-58
2021/06/10 07:09:52;;;;;;;18.10;13.95;;;20.20;99.90;;;;;;5034584;28;20053;-59
2021/06/10 07:12:18;;;;;;;20.90;15.27;;;20.30;99.90;;;;;;5039941;28;20156;-59
2021/06/10 07:14:44;;;;;;;19.10;14.18;;;20.30;99.90;;;;;;5042416;28;20049;-58
2021/06/10 07:17:10;;;;;;;21.90;15.45;;;20.40;99.90;;;;;;5036935;28;20137;-58
2021/06/10 07:19:37;;;;;;;20.75;14.13;;;20.30;99.90;;;;;;5038753;28;20037;-59
2021/06/10 07:22:03;;;;;;;20.50;14.10;;;20.40;99.90;;;;;;5040646;28;20240;-59
2021/06/10 07:24:38;;;;;;;21.80;15.02;;;20.20;99.90;;;;;;5033293;28;20069;-62
2021/06/10 07:27:09;;;;;;;19.23;13.30;;;20.40;99.90;;;;;;5031676;28;20056;-63
2021/06/10 07:29:37;;;;;;;21.27;15.68;;;20.50;99.90;;;;;;5042843;28;20067;-62
2021/06/10 07:32:04;;;;;;;17.38;13.98;;;20.40;99.90;;;;;;5031549;28;20064;-61
2021/06/10 07:34:31;;;;;;;18.45;14.02;;;20.60;99.90;;;;;;5041289;28;20069;-63
2021/06/10 07:36:57;;;;;;;17.35;12.77;;;20.70;99.90;;;;;;5042187;28;20049;-66
2021/06/10 07:39:26;;;;;;;18.23;11.95;;;20.70;99.90;;;;;;5041450;28;20045;-63
2021/06/10 07:41:55;;;;;;;15.90;13.55;;;20.70;99.90;;;;;;5042245;28;20046;-63
2021/06/10 07:44:21;;;;;;;14.90;12.52;;;21.00;99.90;;;;;;5040396;28;20116;-65
2021/06/10 07:46:46;;;;;;;15.73;12.18;;;20.90;99.90;;;;;;5038047;28;20092;-63
2021/06/10 07:49:12;;;;;;;14.35;10.68;;;21.00;99.90;;;;;;5045424;28;20064;-63
2021/06/10 07:51:38;;;;;;;18.95;11.35;;;21.20;99.90;;;;;;5041396;28;20057;-63
2021/06/10 07:54:04;;;;;;;18.15;13.30;;;21.60;99.90;;;;;;5042127;28;20038;-64
2021/06/10 07:56:30;;;;;;;14.45;11.95;;;21.30;99.90;;;;;;5044260;28;20048;-64
2021/06/10 07:58:56;;;;;;;17.55;10.77;;;21.20;99.90;;;;;;5043635;28;20126;-64
2021/06/10 08:01:22;;;;;;;18.02;11.45;;;21.10;99.90;;;;;;5045088;28;20042;-64
2021/06/10 08:03:49;;;;;;;16.63;11.40;;;21.20;99.90;;;;;;5041367;28;20054;-64
2021/06/10 08:06:15;;;;;;;15.52;11.52;;;21.10;99.90;;;;;;5039456;28;20076;-64
2021/06/10 08:08:40;;;;;;;13.27;10.90;;;21.00;99.90;;;;;;5041523;28;20041;-64
2021/06/10 08:11:07;;;;;;;10.25;9.07;;;21.10;99.90;;;;;;5043754;28;20038;-64
2021/06/10 08:13:34;;;;;;;16.67;14.00;;;21.20;99.90;;;;;;5043612;28;20120;-64
2021/06/10 08:16:01;;;;;;;18.33;12.55;;;21.20;99.90;;;;;;5042882;28;20137;-64
2021/06/10 08:18:28;;;;;;;14.93;10.53;;;21.30;99.90;;;;;;5044132;28;20050;-64
2021/06/10 08:20:55;;;;;;;13.55;10.90;;;21.40;99.90;;;;;;5042870;28;20324;-64
2021/06/10 08:23:21;;;;;;;12.32;9.88;;;21.40;99.90;;;;;;5040272;28;20456;-65
2021/06/10 08:25:47;;;;;;;12.88;9.50;;;21.40;99.10;;;;;;5036918;28;20128;-64
2021/06/10 08:28:14;;;;;;;12.85;9.52;;;21.40;98.70;;;;;;5035764;28;20071;-64
2021/06/10 08:30:40;;;;;;;15.43;7.97;;;21.40;99.90;;;;;;5038826;28;20041;-64
2021/06/10 08:33:07;;;;;;;10.48;8.85;;;21.60;99.30;;;;;;5041677;28;20621;-64
2021/06/10 08:35:33;;;;;;;12.88;9.85;;;21.60;98.40;;;;;;5035986;28;20041;-73
2021/06/10 08:38:02;;;;;;;10.55;9.45;;;21.60;99.90;;;;;;5039800;28;20045;-65
2021/06/10 08:40:29;;;;;;;12.57;9.00;;;21.70;99.90;;;;;;5032507;28;20056;-69
2021/06/10 08:42:55;;;;;;;11.85;8.85;;;21.60;95.40;;;;;;5038786;28;20049;-66
2021/06/10 08:45:22;;;;;;;13.30;9.95;;;21.50;98.80;;;;;;5043056;28;20045;-68
2021/06/10 08:47:49;;;;;;;;;;;21.40;99.80;;;;;;5041968;28;20049;-69
2021/06/10 08:50:29;;;;;;;13.38;9.70;;;21.40;99.40;;;;;;5038313;28;19968;-68
2021/06/10 08:52:56;;;;;;;10.27;7.73;;;21.60;99.50;;;;;;5039481;28;20045;-71
2021/06/10 08:55:25;;;;;;;10.52;8.82;;;21.70;99.10;;;;;;5037946;28;20382;-66
2021/06/10 08:57:52;;;;;;;12.48;9.57;;;21.70;97.80;;;;;;5040418;28;20053;-67
2021/06/10 09:00:23;;;;;;;11.18;8.68;;;21.70;98.50;;;;;;5038034;28;20079;-66
2021/06/10 09:02:53;;;;;;;12.15;8.85;;;21.90;98.60;;;;;;5040727;28;20052;-62
2021/06/10 09:05:21;;;;;;;10.93;7.80;;;22.10;99.20;;;;;;5041250;28;20057;-65
2021/06/10 09:07:56;;;;;;;10.32;6.80;;;22.30;98.60;;;;;;5040885;28;20060;-65
2021/06/10 09:10:29;;;;;;;8.25;5.07;;;22.40;96.50;;;;;;5043996;28;20072;-63
2021/06/10 09:13:00;;;;;;;5.40;4.53;;;22.50;92.50;;;;;;5035989;28;20068;-66
2021/06/10 09:15:28;;;;;;;5.90;5.03;;;22.60;87.70;;;;;;5037923;28;20053;-68
2021/06/10 09:17:55;;;;;;;5.78;4.72;;;22.50;77.00;;;;;;5038326;28;20584;-62
2021/06/10 09:20:26;;;;;;;6.82;5.05;;;22.50;82.80;;;;;;5041535;28;20049;-66
2021/06/10 09:23:17;;;;;;;8.80;4.18;;;22.50;85.30;;;;;;5036722;28;20041;-64
2021/06/10 09:25:46;;;;;;;7.57;5.40;;;22.70;90.60;;;;;;5036699;28;20061;-65
2021/06/10 09:28:12;;;;;;;7.32;5.32;;;22.80;87.10;;;;;;5041124;28;20041;-63
2021/06/10 09:30:48;;;;;;;8.85;5.60;;;22.80;90.60;;;;;;5040402;28;20048;-61
2021/06/10 09:33:18;;;;;;;10.20;6.93;;;23.00;92.20;;;;;;5036241;28;20053;-64
2021/06/10 09:35:46;;;;;;;17.88;7.60;;;23.00;88.00;;;;;;5035844;28;20553;-63
2021/06/10 09:38:26;;;;;;;10.35;7.63;;;22.90;90.60;;;;;;5036904;28;20041;-66
2021/06/10 09:41:02;;;;;;;7.28;5.97;;;23.00;92.20;;;;;;5039001;28;20045;-78
2021/06/10 09:43:47;;;;;;;10.32;7.85;;;23.10;91.60;;;;;;5037805;28;20038;-65
2021/06/10 09:46:15;;;;;;;10.50;8.07;;;23.10;93.00;;;;;;5034038;28;20414;-65
2021/06/10 09:49:08;;;;;;;9.50;7.50;;;23.10;94.90;;;;;;5050077;28;20045;-68
2021/06/10 09:51:52;;;;;;;11.68;8.90;;;23.10;95.70;;;;;;5029012;28;20121;-62
2021/06/10 09:54:38;;;;;;;9.55;7.32;;;23.10;95.50;;;;;;5041705;28;20120;-69
2021/06/10 09:57:04;;;;;;;14.52;7.97;;;23.20;96.10;;;;;;5036968;28;20046;-69
2021/06/10 09:59:54;;;;;;;10.30;8.82;;;23.30;96.40;;;;;;5037839;28;20049;-71
2021/06/10 10:02:29;;;;;;;10.52;8.52;;;23.50;95.30;;;;;;5034332;28;20045;-63
2021/06/10 10:05:10;;;;;;;12.80;9.82;;;23.50;96.30;;;;;;5032480;28;20160;-63
2021/06/10 10:07:44;;;;;;;12.93;8.55;;;23.40;95.10;;;;;;5035825;28;20045;-63
2021/06/10 10:10:11;;;;;;;13.65;10.27;;;23.30;96.10;;;;;;5032618;28;20046;-65
2021/06/10 10:12:43;;;;;;;15.00;10.15;;;23.20;96.10;;;;;;5035115;28;20057;-69
2021/06/10 10:15:09;;;;;;;13.93;9.50;;;23.10;97.00;;;;;;5031781;28;20060;-65
2021/06/10 10:17:36;;;;;;;13.80;10.48;;;23.20;97.40;;;;;;5033761;28;20037;-62
2021/06/10 10:20:04;;;;;;;14.93;10.18;;;23.10;97.00;;;;;;5040502;28;20050;-68
2021/06/10 10:22:31;;;;;;;14.75;9.13;;;23.30;97.30;;;;;;5036781;28;20048;-61
2021/06/10 10:25:00;;;;;;;10.75;8.80;;;23.40;96.10;;;;;;5036719;28;20057;-67
2021/06/10 10:27:27;;;;;;;13.52;7.57;;;23.50;96.60;;;;;;5036382;28;20088;-72
2021/06/10 10:29:55;;;;;;;11.52;9.75;;;23.60;96.90;;;;;;5040829;28;20057;-72
2021/06/10 10:32:23;;;;;;;11.55;9.85;;;23.70;97.00;;;;;;5038649;28;20044;-66
2021/06/10 10:34:49;;;;;;;10.88;8.80;;;23.70;97.20;;;;;;5033384;28;20131;-68
2021/06/10 10:37:24;;;;;;;14.32;10.60;;;23.70;96.40;;;;;;5034446;28;20452;-67
2021/06/10 10:39:55;;;;;;;12.23;8.95;;;23.70;96.50;;;;;;5034768;28;20053;-66
2021/06/10 10:42:36;;;;;;;15.20;8.70;;;23.80;97.20;;;;;;5040521;28;20041;-65
2021/06/10 10:45:24;;;;;;;13.98;9.02;;;24.00;97.40;;;;;;5036424;28;20042;-63
2021/06/10 10:50:31;;;;;;;14.38;10.00;;;24.00;94.40;;;;;;5034550;28;20041;-66
2021/06/10 10:52:58;;;;;;;15.52;9.93;;;24.00;94.60;;;;;;5039387;28;20052;-65
2021/06/10 10:55:32;;;;;;;14.02;9.15;;;24.10;96.40;;;;;;5039884;28;20051;-71
2021/06/10 10:58:28;;;;;;;10.70;9.18;;;24.00;95.50;;;;;;5034710;28;20120;-74
2021/06/10 11:01:03;;;;;;;12.98;9.93;;;24.20;96.00;;;;;;4973543;28;20059;-63
2021/06/10 11:03:40;;;;;;;20.38;9.95;;;24.30;94.60;;;;;;4980090;28;20130;-67
2021/06/10 11:06:22;;;;;;;13.23;9.15;;;24.30;94.20;;;;;;4988085;28;20109;-63
2021/06/10 11:09:12;;;;;;;13.23;6.68;;;24.30;94.40;;;;;;4981575;28;20089;-64
2021/06/10 11:12:05;;;;;;;10.88;7.93;;;24.50;94.80;;;;;;4983638;28;20079;-63
2021/06/10 11:14:52;;;;;;;13.32;7.63;;;;;;;;;;4978036;28;20074;-63
2021/06/10 11:17:32;;;;;;;12.25;7.88;;;24.80;91.70;;;;;;4984115;28;20058;-65
2021/06/10 11:20:11;;;;;;;12.93;7.22;;;24.90;93.30;;;;;;4981678;28;20126;-72
2021/06/10 11:22:37;;;;;;;8.07;6.60;;;24.90;92.10;;;;;;4983492;28;20054;-67
2021/06/10 11:25:11;;;;;;;10.68;5.82;;;25.20;92.30;;;;;;4981549;28;20095;-66
2021/06/10 11:27:41;;;;;;;7.28;5.78;;;25.40;93.50;;;;;;4982794;28;20038;-68
2021/06/10 11:30:17;;;;;;;12.05;6.78;;;;;;;;;;4981687;28;20138;-64
2021/06/10 11:33:03;;;;;;;7.80;6.00;;;25.70;84.20;;;;;;4981137;28;20047;-71
2021/06/10 11:35:29;;;;;;;5.75;4.70;;;26.20;82.80;;;;;;4985335;28;20060;-63
2021/06/10 11:37:57;;;;;;;6.03;4.60;;;26.90;81.00;;;;;;5031355;28;20060;-62
2021/06/10 11:40:23;;;;;;;7.97;5.60;;;27.40;76.30;;;;;;5047998;28;20052;-62
2021/06/10 11:42:49;;;;;;;9.10;5.30;;;27.80;77.80;;;;;;5046824;28;20049;-62
2021/06/10 11:45:22;;;;;;;6.55;5.10;;;28.00;67.90;;;;;;5043016;28;20041;-68
2021/06/10 11:47:49;;;;;;;5.60;4.63;;;28.20;61.10;;;;;;5040768;28;21552;-68
2021/06/10 11:50:26;;;;;;;5.63;5.03;;;28.30;64.30;;;;;;5045788;28;20041;-65
2021/06/10 11:52:53;;;;;;;6.28;5.28;;;28.40;59.00;;;;;;5040592;28;20072;-67
2021/06/10 11:55:22;;;;;;;9.32;5.40;;;28.40;62.30;;;;;;5045335;28;20129;-70
2021/06/10 11:57:57;;;;;;;5.60;5.00;;;28.60;64.00;;;;;;5047009;28;20517;-67
2021/06/10 12:00:31;;;;;;;6.80;5.10;;;28.80;61.20;;;;;;5041606;28;20080;-61
2021/06/10 12:02:59;;;;;;;6.63;4.60;;;29.20;58.60;;;;;;5045171;28;20052;-60
2021/06/10 12:05:27;;;;;;;5.70;4.22;;;29.40;57.90;;;;;;5044207;28;20049;-61
2021/06/10 12:08:11;;;;;;;7.63;5.63;;;29.60;55.10;;;;;;5040952;28;20107;-62
2021/06/10 12:10:37;;;;;;;8.23;6.65;;;29.50;53.10;;;;;;5045453;28;20064;-62
2021/06/10 12:13:03;;;;;;;7.10;6.38;;;29.20;54.30;;;;;;5046922;28;20049;-62
2021/06/10 12:15:36;;;;;;;7.78;5.38;;;29.60;56.40;;;;;;5038388;28;20092;-62
2021/06/10 12:18:08;;;;;;;7.13;5.20;;;29.20;55.40;;;;;;5045248;28;20046;-62
2021/06/10 12:20:48;;;;;;;6.30;5.13;;;28.80;52.00;;;;;;5037876;28;20046;-62
2021/06/10 12:23:26;;;;;;;11.07;4.55;;;28.80;53.80;;;;;;5040675;28;20053;-62
2021/06/10 12:25:58;;;;;;;4.97;4.40;;;29.20;54.50;;;;;;5039940;28;20059;-62
2021/06/10 12:28:47;;;;;;;5.05;3.95;;;29.30;52.90;;;;;;5040030;28;20037;-62
2021/06/10 12:31:19;;;;;;;3.97;3.42;;;29.40;53.20;;;;;;5038517;28;20141;-62
2021/06/10 12:33:49;;;;;;;6.47;3.90;;;29.70;51.20;;;;;;5034876;28;20510;-62
2021/06/10 12:36:24;;;;;;;6.53;4.70;;;30.40;51.30;;;;;;5038539;28;20042;-62
2021/06/10 12:39:03;;;;;;;5.30;4.38;;;30.50;48.80;;;;;;5039439;28;20050;-63
2021/06/10 12:41:46;;;;;;;4.35;3.22;;;30.70;48.30;;;;;;5039862;28;20042;-63
2021/06/10 12:44:22;;;;;;;5.22;4.30;;;31.20;49.40;;;;;;5032558;28;20052;-63
2021/06/10 12:46:59;;;;;;;5.43;3.40;;;31.30;46.00;;;;;;5042745;28;20086;-63
2021/06/10 12:49:38;;;;;;;5.20;3.20;;;31.20;46.00;;;;;;5036212;28;20079;-63
2021/06/10 12:52:10;;;;;;;5.60;4.68;;;30.80;45.70;;;;;;5030498;28;20104;-64